Time;durP1;ratioP1;P1;durP2;ratioP2;P2;SDS_P1;SDS_P2;PMS_P1;PMS_P2;Temp;Humidity;BMP_temperature;BMP_pressure;BME280_temperature;BME280_humidity;BME280_pressure;Samples;Min_cycle;Max_cycle;Signal;HPM_P1;HPM_P2
2021/03/01 00:00:29;;;;;;;5.18;2.95;;;17.80;54.80;;;;;;5111422;28;20479;-75
2021/03/01 00:02:55;;;;;;;5.22;3.42;;;17.80;54.80;;;;;;5110740;28;20043;-76
2021/03/01 00:05:22;;;;;;;7.47;3.75;;;17.80;54.80;;;;;;5111912;28;20020;-76
2021/03/01 00:07:49;;;;;;;4.22;2.88;;;17.70;54.90;;;;;;5111704;28;20426;-76
2021/03/01 00:10:17;;;;;;;6.43;3.60;;;17.70;54.80;;;;;;5111250;28;20173;-76
2021/03/01 00:12:43;;;;;;;5.03;3.72;;;17.70;54.90;;;;;;5111019;28;20107;-76
2021/03/01 00:15:12;;;;;;;5.22;3.70;;;17.70;54.90;;;;;;5110038;28;20020;-76
2021/03/01 00:17:38;;;;;;;6.20;3.20;;;17.60;54.80;;;;;;5110394;28;20019;-76
2021/03/01 00:20:06;;;;;;;6.75;4.05;;;17.60;54.80;;;;;;5114547;28;20031;-75
2021/03/01 00:22:32;;;;;;;5.35;3.53;;;17.60;54.90;;;;;;5114899;28;20035;-76
2021/03/01 00:24:58;;;;;;;7.22;3.88;;;17.60;54.80;;;;;;5114949;28;20032;-76
2021/03/01 00:27:23;;;;;;;5.38;3.53;;;17.50;55.40;;;;;;5115142;28;20031;-76
2021/03/01 00:29:49;;;;;;;5.75;3.65;;;17.50;54.80;;;;;;5114978;28;20379;-76
2021/03/01 00:32:15;;;;;;;7.68;3.63;;;17.50;54.80;;;;;;5113954;28;20137;-76
2021/03/01 00:34:41;;;;;;;6.55;3.50;;;17.40;55.00;;;;;;5114183;28;20024;-76
2021/03/01 00:37:06;;;;;;;7.15;3.95;;;17.40;54.90;;;;;;5114256;28;20100;-76
2021/03/01 00:39:32;;;;;;;5.55;3.60;;;17.40;55.10;;;;;;5114345;28;20429;-76
2021/03/01 00:41:58;;;;;;;5.30;3.67;;;17.30;54.90;;;;;;5114550;28;20505;-76
2021/03/01 00:44:23;;;;;;;5.70;3.75;;;17.30;55.00;;;;;;5114670;28;20110;-75
2021/03/01 00:46:49;;;;;;;5.35;3.88;;;17.30;55.00;;;;;;5114352;28;20020;-76
2021/03/01 00:49:15;;;;;;;4.70;3.17;;;17.30;55.00;;;;;;5114517;28;20031;-76
2021/03/01 00:51:41;;;;;;;5.80;2.95;;;17.20;54.90;;;;;;5114484;28;20471;-76
2021/03/01 00:54:06;;;;;;;6.13;3.50;;;17.20;54.90;;;;;;5114306;28;20020;-76
2021/03/01 00:56:32;;;;;;;4.45;2.85;;;17.20;54.90;;;;;;5114300;28;20099;-75
2021/03/01 00:58:58;;;;;;;4.63;3.28;;;17.20;54.90;;;;;;5114672;28;20016;-76
2021/03/01 01:01:23;;;;;;;6.60;3.75;;;17.20;54.90;;;;;;5114309;28;20035;-76
2021/03/01 01:03:49;;;;;;;7.38;3.80;;;17.10;54.90;;;;;;5113417;28;20040;-76
2021/03/01 01:06:14;;;;;;;5.63;3.55;;;17.10;54.80;;;;;;5112939;28;20411;-76
2021/03/01 01:08:40;;;;;;;5.82;3.83;;;17.10;54.90;;;;;;5114084;28;20506;-76
2021/03/01 01:11:05;;;;;;;6.68;3.65;;;17.10;54.90;;;;;;5113151;28;20066;-76
2021/03/01 01:13:31;;;;;;;7.03;4.03;;;17.10;54.90;;;;;;5113841;28;20106;-76
2021/03/01 01:15:58;;;;;;;5.15;2.80;;;17.00;54.80;;;;;;5112715;28;20035;-76
2021/03/01 01:18:25;;;;;;;4.90;3.33;;;17.00;54.90;;;;;;5114285;28;20072;-76
2021/03/01 01:20:51;;;;;;;6.07;3.65;;;17.00;54.90;;;;;;5113391;28;20031;-76
2021/03/01 01:23:17;;;;;;;5.18;3.53;;;17.00;54.90;;;;;;5113618;28;20023;-76
2021/03/01 01:25:42;;;;;;;6.00;4.10;;;17.00;54.90;;;;;;5113711;28;20112;-76
2021/03/01 01:28:08;;;;;;;5.95;3.70;;;17.00;54.80;;;;;;5113751;28;20098;-76
2021/03/01 01:30:34;;;;;;;6.28;3.58;;;17.00;54.80;;;;;;5111694;28;20483;-76
2021/03/01 01:33:00;;;;;;;5.05;3.25;;;16.90;54.80;;;;;;5112841;28;20027;-76
2021/03/01 01:35:25;;;;;;;5.13;3.72;;;16.90;54.80;;;;;;5113165;28;20034;-76
2021/03/01 01:37:51;;;;;;;5.85;3.22;;;16.90;54.80;;;;;;5113491;28;20031;-76
2021/03/01 01:40:19;;;;;;;4.93;3.35;;;16.90;54.80;;;;;;5113381;28;20032;-75
2021/03/01 01:42:45;;;;;;;6.35;3.92;;;16.90;54.80;;;;;;5113387;28;20515;-76
2021/03/01 01:45:17;;;;;;;5.53;3.40;;;16.90;54.80;;;;;;5113452;28;20524;-76
2021/03/01 01:47:43;;;;;;;5.03;3.63;;;16.80;54.80;;;;;;5113338;28;20027;-76
2021/03/01 01:50:10;;;;;;;6.95;3.72;;;16.80;54.90;;;;;;5113279;28;20031;-76
2021/03/01 01:52:36;;;;;;;5.68;3.88;;;16.80;54.90;;;;;;5112960;28;20040;-76
2021/03/01 01:55:07;;;;;;;7.25;3.67;;;16.80;54.80;;;;;;5112934;28;20034;-75
2021/03/01 01:57:35;;;;;;;6.00;3.53;;;16.80;54.70;;;;;;5113065;28;20020;-76
2021/03/01 02:00:01;;;;;;;4.75;3.13;;;16.80;54.80;;;;;;5113412;28;20059;-76
2021/03/01 02:02:27;;;;;;;5.32;2.95;;;16.70;54.80;;;;;;5112913;28;20487;-76
2021/03/01 02:04:57;;;;;;;5.30;3.33;;;16.70;54.80;;;;;;5113162;28;20043;-76
2021/03/01 02:07:51;;;;;;;5.00;3.38;;;16.70;54.80;;;;;;5113044;28;20519;-76
2021/03/01 02:10:27;;;;;;;5.75;3.00;;;16.70;55.30;;;;;;5112264;28;20070;-76
2021/03/01 02:12:56;;;;;;;5.55;3.45;;;16.70;55.40;;;;;;5112908;28;20030;-76
2021/03/01 02:15:25;;;;;;;7.68;3.78;;;16.70;54.70;;;;;;5112397;28;20026;-76
2021/03/01 02:17:51;;;;;;;6.70;3.50;;;16.60;54.70;;;;;;5112708;28;20027;-77
2021/03/01 02:20:17;;;;;;;7.53;3.45;;;16.60;54.80;;;;;;5112822;28;20403;-76
2021/03/01 02:22:42;;;;;;;5.53;3.53;;;16.70;54.90;;;;;;5112522;28;20434;-77
2021/03/01 02:25:16;;;;;;;5.18;3.40;;;16.60;54.90;;;;;;5112695;28;20024;-76
2021/03/01 02:27:49;;;;;;;5.30;3.25;;;16.60;54.80;;;;;;5111136;28;20145;-76
2021/03/01 02:30:36;;;;;;;4.18;3.10;;;16.60;54.80;;;;;;5112693;28;20023;-76
2021/03/01 02:33:14;;;;;;;4.47;3.10;;;16.60;54.80;;;;;;5112275;28;20402;-76
2021/03/01 02:35:43;;;;;;;5.35;3.10;;;16.60;55.40;;;;;;5110400;28;20031;-76
2021/03/01 02:38:11;;;;;;;5.10;2.72;;;16.50;54.80;;;;;;5112390;28;20484;-76
2021/03/01 02:40:39;;;;;;;5.63;2.97;;;16.60;54.90;;;;;;5111289;28;20475;-76
2021/03/01 02:43:06;;;;;;;4.63;2.83;;;16.50;54.90;;;;;;5112220;28;20046;-76
2021/03/01 02:45:32;;;;;;;4.85;3.20;;;16.50;54.80;;;;;;5112438;28;20072;-76
2021/03/01 02:48:00;;;;;;;4.45;2.92;;;16.50;54.80;;;;;;5112383;28;20065;-76
2021/03/01 02:50:26;;;;;;;4.97;2.83;;;16.50;54.80;;;;;;5112271;28;20016;-76
2021/03/01 02:52:53;;;;;;;5.10;3.30;;;16.50;54.90;;;;;;5112178;28;20023;-76
2021/03/01 02:55:20;;;;;;;4.82;2.85;;;16.50;54.90;;;;;;5111383;28;20074;-76
2021/03/01 02:57:47;;;;;;;4.38;3.30;;;16.50;54.80;;;;;;5111731;28;20042;-76
2021/03/01 03:00:14;;;;;;;4.28;3.08;;;16.40;54.80;;;;;;5111630;28;20432;-76
2021/03/01 03:02:43;;;;;;;3.75;2.50;;;16.40;54.90;;;;;;5112024;28;20032;-76
2021/03/01 03:05:12;;;;;;;5.50;3.22;;;16.50;54.90;;;;;;5112153;28;20039;-76
2021/03/01 03:07:39;;;;;;;5.05;2.90;;;16.40;54.90;;;;;;5111828;28;20028;-76
2021/03/01 03:10:08;;;;;;;5.22;3.20;;;16.40;54.90;;;;;;5112214;28;20016;-76
2021/03/01 03:12:34;;;;;;;4.53;3.10;;;16.40;54.90;;;;;;5112107;28;20080;-76
2021/03/01 03:15:02;;;;;;;5.63;3.20;;;16.40;54.90;;;;;;5112108;28;20019;-76
2021/03/01 03:17:31;;;;;;;4.60;3.00;;;16.40;54.80;;;;;;5111324;28;20083;-77
2021/03/01 03:19:59;;;;;;;6.65;3.67;;;16.40;54.80;;;;;;5111712;28;20072;-77
2021/03/01 03:22:25;;;;;;;5.78;3.08;;;16.40;55.40;;;;;;5111706;28;20108;-76
2021/03/01 03:24:50;;;;;;;4.50;2.95;;;16.30;54.80;;;;;;5111737;28;20062;-76
2021/03/01 03:27:16;;;;;;;5.22;3.47;;;16.30;54.90;;;;;;5111127;28;20081;-77
2021/03/01 03:29:41;;;;;;;6.72;3.22;;;16.30;54.90;;;;;;5111800;28;20103;-76
2021/03/01 03:32:08;;;;;;;4.72;3.10;;;16.30;54.80;;;;;;5110571;28;20020;-76
2021/03/01 03:34:34;;;;;;;4.88;2.97;;;16.30;54.80;;;;;;5112190;28;20024;-76
2021/03/01 03:37:07;;;;;;;3.88;2.85;;;16.30;54.80;;;;;;5111536;28;20028;-76
2021/03/01 03:39:48;;;;;;;4.35;2.85;;;16.30;54.80;;;;;;5111920;28;20016;-76
2021/03/01 03:42:22;;;;;;;6.57;3.50;;;16.30;54.80;;;;;;5111927;28;20030;-76
2021/03/01 03:44:50;;;;;;;4.97;3.38;;;16.30;54.90;;;;;;5111735;28;20028;-76
2021/03/01 03:47:16;;;;;;;5.75;3.25;;;16.30;54.80;;;;;;5111788;28;20046;-76
2021/03/01 03:49:43;;;;;;;5.82;3.15;;;16.20;54.90;;;;;;5111598;28;20020;-76
2021/03/01 03:52:12;;;;;;;7.32;3.75;;;16.20;54.90;;;;;;5112768;28;20027;-76
2021/03/01 03:54:41;;;;;;;6.05;3.58;;;16.20;54.80;;;;;;5115580;28;20031;-76
2021/03/01 03:57:12;;;;;;;5.65;3.30;;;16.20;54.90;;;;;;5113498;28;20119;-76
2021/03/01 03:59:41;;;;;;;5.00;3.38;;;16.20;54.90;;;;;;5115343;28;20024;-76
2021/03/01 04:02:09;;;;;;;5.13;2.60;;;16.20;54.90;;;;;;5115620;28;20031;-76
2021/03/01 04:04:37;;;;;;;4.88;2.80;;;16.20;54.90;;;;;;5115216;28;20047;-76
2021/03/01 04:07:06;;;;;;;8.13;3.78;;;16.20;54.90;;;;;;5114616;28;20092;-76
2021/03/01 04:09:33;;;;;;;5.15;3.20;;;16.20;54.90;;;;;;5115346;28;20509;-75
2021/03/01 04:12:01;;;;;;;5.18;3.58;;;16.20;54.90;;;;;;5115477;28;20028;-76
2021/03/01 04:14:27;;;;;;;4.25;3.03;;;16.20;54.90;;;;;;5115141;28;20024;-77
2021/03/01 04:16:58;;;;;;;6.30;3.47;;;16.10;54.80;;;;;;5115072;28;20030;-76
2021/03/01 04:19:27;;;;;;;5.15;3.30;;;16.10;54.80;;;;;;5114850;28;20047;-77
2021/03/01 04:21:58;;;;;;;5.40;3.40;;;16.10;54.80;;;;;;5115039;28;20068;-77
2021/03/01 04:24:26;;;;;;;5.93;3.35;;;16.10;54.80;;;;;;5113622;28;20488;-76
2021/03/01 04:26:52;;;;;;;5.25;3.25;;;16.10;54.80;;;;;;5114695;28;20031;-76
2021/03/01 04:29:20;;;;;;;6.68;3.47;;;16.10;54.80;;;;;;5114866;28;20044;-77
2021/03/01 04:31:48;;;;;;;6.88;4.18;;;16.10;54.80;;;;;;5115079;28;20494;-77
2021/03/01 04:34:19;;;;;;;4.13;3.00;;;16.00;54.80;;;;;;5114432;28;20498;-76
2021/03/01 04:36:46;;;;;;;5.28;3.63;;;16.10;54.80;;;;;;5115063;28;20068;-77
2021/03/01 04:39:12;;;;;;;5.82;3.22;;;16.00;54.80;;;;;;5114138;28;20039;-77
2021/03/01 04:41:39;;;;;;;5.60;3.60;;;16.00;54.80;;;;;;5115055;28;20018;-77
2021/03/01 04:44:09;;;;;;;4.75;3.60;;;16.00;54.80;;;;;;5114436;28;20035;-76
2021/03/01 04:46:36;;;;;;;6.35;3.78;;;16.00;54.80;;;;;;5114351;28;20016;-77
2021/03/01 04:49:03;;;;;;;4.63;3.15;;;16.00;54.80;;;;;;5114483;28;20065;-77
2021/03/01 04:51:29;;;;;;;6.88;3.72;;;16.00;54.80;;;;;;5112981;28;20032;-77
2021/03/01 04:53:57;;;;;;;4.55;2.70;;;16.00;54.80;;;;;;5114550;28;20103;-77
2021/03/01 04:56:24;;;;;;;6.10;3.38;;;16.00;54.80;;;;;;5113569;28;20551;-77
2021/03/01 04:58:51;;;;;;;5.25;3.53;;;16.00;54.80;;;;;;5113830;28;20027;-77
2021/03/01 05:01:17;;;;;;;6.80;3.58;;;16.00;54.80;;;;;;5112919;28;20050;-77
2021/03/01 05:03:44;;;;;;;5.47;3.65;;;15.90;54.80;;;;;;5113268;28;20031;-77
2021/03/01 05:06:11;;;;;;;6.07;3.78;;;15.90;54.70;;;;;;5114458;28;20041;-77
2021/03/01 05:08:39;;;;;;;7.47;4.55;;;16.00;54.80;;;;;;5112455;28;20080;-77
2021/03/01 05:11:06;;;;;;;6.85;3.65;;;15.90;54.70;;;;;;5113996;28;20522;-77
2021/03/01 05:13:35;;;;;;;5.03;3.22;;;15.90;54.70;;;;;;5113784;28;20028;-77
2021/03/01 05:16:01;;;;;;;7.82;4.00;;;15.90;54.70;;;;;;5113752;28;20080;-77
2021/03/01 05:18:30;;;;;;;6.53;3.90;;;15.90;54.70;;;;;;5113809;28;20032;-77
2021/03/01 05:20:56;;;;;;;5.35;3.47;;;15.90;54.70;;;;;;5113866;28;20418;-77
2021/03/01 05:23:23;;;;;;;6.60;3.60;;;15.90;54.60;;;;;;5113892;28;20051;-77
2021/03/01 05:25:49;;;;;;;5.40;3.15;;;15.90;55.30;;;;;;5113599;28;20470;-77
2021/03/01 05:28:15;;;;;;;6.15;3.63;;;15.90;54.70;;;;;;5113837;28;20049;-77
2021/03/01 05:30:40;;;;;;;6.15;3.55;;;15.90;54.70;;;;;;5112700;28;20030;-77
2021/03/01 05:33:06;;;;;;;5.72;3.78;;;15.90;54.70;;;;;;5113751;28;20050;-77
2021/03/01 05:35:32;;;;;;;9.10;4.05;;;15.90;54.70;;;;;;5113893;28;20051;-77
2021/03/01 05:37:57;;;;;;;7.57;4.10;;;15.80;54.60;;;;;;5113222;28;20024;-77
2021/03/01 05:40:23;;;;;;;5.43;3.63;;;15.80;54.60;;;;;;5113670;28;20023;-77
2021/03/01 05:42:51;;;;;;;5.78;3.90;;;15.80;54.60;;;;;;5111802;28;20578;-77
2021/03/01 05:45:16;;;;;;;7.80;4.25;;;15.80;54.70;;;;;;5113584;28;20024;-77
2021/03/01 05:47:43;;;;;;;5.22;3.55;;;15.80;54.60;;;;;;5113766;28;20063;-77
2021/03/01 05:50:10;;;;;;;5.57;3.90;;;15.80;54.70;;;;;;5113471;28;20024;-77
2021/03/01 05:52:38;;;;;;;5.68;3.67;;;15.80;54.60;;;;;;5111677;28;20028;-76
2021/03/01 05:55:05;;;;;;;5.68;3.88;;;15.70;54.60;;;;;;5112966;28;20028;-77
2021/03/01 05:57:32;;;;;;;6.15;3.78;;;15.70;54.50;;;;;;5113358;28;20016;-77
2021/03/01 05:59:58;;;;;;;6.63;3.40;;;15.80;54.60;;;;;;5112691;28;20479;-76
2021/03/01 06:02:24;;;;;;;7.45;4.35;;;15.80;54.50;;;;;;5112616;28;20023;-77
2021/03/01 06:04:51;;;;;;;5.95;3.30;;;15.70;54.50;;;;;;5112894;28;20450;-76
2021/03/01 06:07:17;;;;;;;7.22;3.60;;;15.70;54.40;;;;;;5112690;28;20048;-77
2021/03/01 06:09:42;;;;;;;6.63;4.07;;;15.70;54.50;;;;;;5112892;28;20028;-77
2021/03/01 06:12:08;;;;;;;6.40;4.15;;;15.70;54.40;;;;;;5113072;28;20425;-77
2021/03/01 06:14:34;;;;;;;6.68;3.95;;;15.70;54.30;;;;;;5112904;28;20092;-76
2021/03/01 06:17:12;;;;;;;5.88;3.67;;;15.70;54.40;;;;;;5112861;28;20051;-77
2021/03/01 06:19:53;;;;;;;5.57;3.28;;;15.70;54.30;;;;;;5112688;28;20027;-76
2021/03/01 06:22:22;;;;;;;7.07;3.75;;;15.70;54.30;;;;;;5111963;28;20437;-76
2021/03/01 06:25:13;;;;;;;6.70;4.07;;;15.70;54.20;;;;;;5112119;28;20406;-76
2021/03/01 06:27:50;;;;;;;6.30;3.40;;;15.60;54.20;;;;;;5112631;28;20028;-75
2021/03/01 06:30:18;;;;;;;6.88;3.90;;;15.60;54.20;;;;;;5112279;28;20034;-84
2021/03/01 06:33:01;;;;;;;6.03;3.67;;;15.60;54.30;;;;;;5112291;28;20035;-76
2021/03/01 06:35:48;;;;;;;6.75;3.63;;;15.60;54.20;;;;;;5103086;28;20388;-76
2021/03/01 06:38:41;;;;;;;7.18;3.88;;;15.60;54.40;;;;;;5105254;28;20059;-77
2021/03/01 06:41:15;;;;;;;5.60;3.38;;;15.60;54.40;;;;;;5110322;28;20401;-78
2021/03/01 06:43:52;;;;;;;11.77;3.97;;;15.60;54.60;;;;;;5112359;28;20051;-78
2021/03/01 06:46:18;;;;;;;8.35;3.60;;;15.70;54.50;;;;;;5112265;28;20102;-78
2021/03/01 06:48:44;;;;;;;6.70;3.45;;;15.70;54.60;;;;;;5112436;28;20023;-78
2021/03/01 06:51:09;;;;;;;6.38;3.67;;;15.80;54.70;;;;;;5112129;28;20468;-78
2021/03/01 06:53:36;;;;;;;5.68;3.90;;;15.80;54.70;;;;;;5112314;28;20436;-77
2021/03/01 06:56:05;;;;;;;7.53;3.70;;;15.80;55.30;;;;;;5111696;28;20496;-78
2021/03/01 06:58:43;;;;;;;5.68;4.30;;;15.90;54.80;;;;;;5112301;28;20038;-76
2021/03/01 07:01:22;;;;;;;8.93;3.60;;;16.00;54.80;;;;;;5112065;28;20032;-74
2021/03/01 07:03:49;;;;;;;9.68;3.38;;;16.00;54.90;;;;;;5110797;28;20418;-76
2021/03/01 07:06:16;;;;;;;10.02;4.20;;;16.10;55.40;;;;;;5111718;28;20032;-76
2021/03/01 07:08:48;;;;;;;8.10;4.50;;;16.20;55.30;;;;;;5111621;28;20034;-76
2021/03/01 07:11:20;;;;;;;12.43;4.82;;;16.20;55.10;;;;;;5112319;28;20028;-75
2021/03/01 07:13:46;;;;;;;9.48;4.18;;;16.30;56.20;;;;;;5110929;28;20132;-76
2021/03/01 07:16:13;;;;;;;7.05;3.92;;;16.40;56.50;;;;;;5112056;28;20024;-76
2021/03/01 07:18:41;;;;;;;9.23;4.10;;;16.50;56.60;;;;;;5110393;28;20102;-73
2021/03/01 07:21:12;;;;;;;9.45;4.38;;;16.60;56.60;;;;;;5112000;28;20016;-76
2021/03/01 07:23:42;;;;;;;11.02;3.85;;;16.80;56.60;;;;;;5111762;28;20031;-76
2021/03/01 07:26:14;;;;;;;8.70;3.60;;;16.90;56.70;;;;;;5111995;28;20031;-75
2021/03/01 07:28:50;;;;;;;8.27;3.92;;;17.10;56.60;;;;;;5115257;28;20433;-76
2021/03/01 07:31:17;;;;;;;10.90;3.70;;;17.20;56.60;;;;;;5116159;28;20023;-77
2021/03/01 07:33:43;;;;;;;11.40;4.88;;;17.40;56.30;;;;;;5115405;28;20020;-77
2021/03/01 07:36:10;;;;;;;10.05;6.00;;;17.40;56.20;;;;;;5115498;28;20042;-76
2021/03/01 07:38:36;;;;;;;10.15;6.43;;;17.60;56.30;;;;;;5115936;28;20046;-75
2021/03/01 07:41:03;;;;;;;10.85;6.05;;;17.70;56.20;;;;;;5116129;28;20027;-75
2021/03/01 07:43:33;;;;;;;9.32;5.65;;;17.80;55.80;;;;;;5106247;28;20028;-74
2021/03/01 07:45:59;;;;;;;13.43;5.45;;;17.80;55.70;;;;;;5104376;28;20028;-77
2021/03/01 07:48:37;;;;;;;8.95;4.78;;;17.90;55.40;;;;;;5114388;28;20110;-74
2021/03/01 07:51:04;;;;;;;8.45;4.78;;;18.00;55.40;;;;;;5115000;28;20036;-75
2021/03/01 07:53:44;;;;;;;10.57;4.65;;;18.00;55.30;;;;;;5114500;28;20046;-75
2021/03/01 07:56:24;;;;;;;8.45;4.40;;;18.10;55.10;;;;;;5114299;28;20023;-74
2021/03/01 07:59:03;;;;;;;10.90;5.03;;;18.20;55.00;;;;;;5114333;28;20055;-75
2021/03/01 08:01:29;;;;;;;12.52;4.13;;;18.30;55.00;;;;;;5114370;28;20394;-78
2021/03/01 08:03:56;;;;;;;9.52;5.00;;;18.40;55.40;;;;;;5114458;28;20522;-75
2021/03/01 08:06:22;;;;;;;8.45;3.70;;;18.40;55.40;;;;;;5113795;28;20020;-79
2021/03/01 08:08:53;;;;;;;7.43;4.00;;;18.50;54.90;;;;;;5114792;28;20035;-76
2021/03/01 08:11:37;;;;;;;8.77;4.38;;;18.50;54.80;;;;;;5114212;28;20475;-79
2021/03/01 08:14:12;;;;;;;8.90;4.10;;;18.60;54.40;;;;;;5115716;27;20067;-78
2021/03/01 08:16:38;;;;;;;8.95;3.90;;;18.60;54.20;;;;;;5113300;28;20019;-79
2021/03/01 08:19:05;;;;;;;7.03;4.55;;;18.60;54.10;;;;;;5113655;28;20036;-79
2021/03/01 08:22:03;;;;;;;8.93;4.40;;;18.60;53.80;;;;;;5113920;28;20270;-78
2021/03/01 08:24:47;;;;;;;6.97;4.45;;;18.70;54.00;;;;;;5113960;28;20080;-78
2021/03/01 08:27:25;;;;;;;5.72;3.75;;;18.70;54.10;;;;;;5113931;28;20053;-77
2021/03/01 08:30:19;;;;;;;8.18;4.22;;;18.80;53.90;;;;;;5113520;27;20387;-77
2021/03/01 08:33:08;;;;;;;11.30;4.55;;;18.90;53.80;;;;;;5113576;28;20027;-75
2021/03/01 08:35:35;;;;;;;7.80;4.97;;;18.90;53.50;;;;;;5112939;28;20024;-77
2021/03/01 08:38:01;;;;;;;20.60;12.35;;;19.00;52.90;;;;;;5113126;28;20024;-77
2021/03/01 08:40:26;;;;;;;27.15;16.40;;;18.90;52.80;;;;;;5130512;27;20019;-77
2021/03/01 08:43:03;;;;;;;37.90;18.77;;;18.90;52.60;;;;;;5134571;27;20023;-77
2021/03/01 08:45:35;;;;;;;35.75;17.58;;;18.80;53.60;;;;;;5124459;27;20039;-78
2021/03/01 08:48:03;;;;;;;41.70;22.05;;;18.70;53.50;;;;;;5134232;27;20102;-77
2021/03/01 08:50:38;;;;;;;36.17;18.42;;;18.70;53.70;;;;;;5133771;27;20114;-76
2021/03/01 08:53:04;;;;;;;40.40;16.50;;;18.60;54.40;;;;;;5134167;27;20030;-76
2021/03/01 08:55:29;;;;;;;35.95;15.60;;;18.80;54.40;;;;;;5133804;27;20019;-74
2021/03/01 08:58:03;;;;;;;50.88;22.33;;;19.00;54.10;;;;;;5128872;27;20027;-77
2021/03/01 09:00:31;;;;;;;59.47;25.70;;;19.10;53.80;;;;;;5112716;28;20019;-76
2021/03/01 09:03:21;;;;;;;66.05;25.17;;;19.20;53.70;;;;;;5112829;28;20118;-76
2021/03/01 09:05:49;;;;;;;49.75;21.75;;;19.30;53.50;;;;;;5113776;28;20035;-77
2021/03/01 09:08:23;;;;;;;34.95;17.25;;;19.30;53.40;;;;;;5113046;28;20028;-76
2021/03/01 09:10:49;;;;;;;37.67;16.70;;;19.40;52.70;;;;;;5114246;28;20518;-76
2021/03/01 09:13:22;;;;;;;32.58;13.68;;;19.50;52.70;;;;;;5113776;28;20187;-76
2021/03/01 09:15:48;;;;;;;33.95;13.77;;;19.60;52.40;;;;;;5115014;27;20118;-77
2021/03/01 09:18:15;;;;;;;29.63;13.05;;;19.70;52.10;;;;;;5134922;27;20837;-77
2021/03/01 09:21:02;;;;;;;30.33;12.48;;;19.70;52.10;;;;;;5125358;27;20411;-76
2021/03/01 09:23:54;;;;;;;25.73;10.82;;;19.80;52.10;;;;;;5113635;28;20555;-77
2021/03/01 09:26:22;;;;;;;29.17;10.75;;;19.90;52.10;;;;;;5109398;28;20103;-76
2021/03/01 09:28:49;;;;;;;24.33;9.60;;;19.90;52.10;;;;;;5112575;28;20100;-76
2021/03/01 09:31:16;;;;;;;23.75;10.65;;;20.00;52.00;;;;;;5113735;28;20089;-75
2021/03/01 09:33:43;;;;;;;19.60;9.68;;;20.10;51.70;;;;;;5113724;28;20026;-74
2021/03/01 09:36:09;;;;;;;22.35;9.98;;;20.10;51.60;;;;;;5112768;28;20103;-74
2021/03/01 09:38:36;;;;;;;25.17;9.75;;;20.10;51.30;;;;;;5113277;28;20020;-75
2021/03/01 09:41:13;;;;;;;17.67;8.35;;;20.10;51.30;;;;;;5113324;28;20053;-76
2021/03/01 09:43:40;;;;;;;16.98;9.00;;;20.10;51.00;;;;;;5112118;28;20044;-76
2021/03/01 09:46:06;;;;;;;17.35;8.50;;;20.20;51.00;;;;;;5112316;28;20099;-76
2021/03/01 09:48:57;;;;;;;13.70;7.50;;;20.20;50.80;;;;;;5113090;28;20023;-76
2021/03/01 09:51:24;;;;;;;15.93;7.53;;;20.20;50.70;;;;;;5108333;28;20530;-75
2021/03/01 09:53:50;;;;;;;18.55;7.78;;;20.20;50.70;;;;;;5113197;28;20106;-75
2021/03/01 09:56:16;;;;;;;17.20;7.88;;;20.20;50.60;;;;;;5113386;28;20033;-75
2021/03/01 09:58:44;;;;;;;17.95;7.22;;;20.20;50.50;;;;;;5113204;28;20368;-74
2021/03/01 10:01:17;;;;;;;21.40;7.80;;;20.20;50.50;;;;;;5112895;28;20026;-75
2021/03/01 10:03:44;;;;;;;16.25;7.03;;;20.20;50.50;;;;;;5112975;28;20051;-74
2021/03/01 10:06:12;;;;;;;13.93;7.35;;;20.10;50.50;;;;;;5112316;28;20140;-75
2021/03/01 10:08:38;;;;;;;13.13;7.72;;;20.10;50.50;;;;;;5112893;28;20027;-74
2021/03/01 10:11:18;;;;;;;15.35;7.00;;;20.10;50.60;;;;;;5113180;28;20370;-74
2021/03/01 10:13:44;;;;;;;13.90;7.63;;;20.00;50.60;;;;;;5112435;28;20031;-75
2021/03/01 10:16:10;;;;;;;14.85;7.18;;;20.00;50.70;;;;;;5113115;28;20027;-74
2021/03/01 10:18:36;;;;;;;13.35;7.70;;;19.90;50.70;;;;;;5112922;28;20031;-74
2021/03/01 10:21:06;;;;;;;15.15;8.00;;;19.90;50.80;;;;;;5112784;28;20094;-75
2021/03/01 10:23:31;;;;;;;14.70;7.28;;;19.90;50.70;;;;;;5112900;28;20380;-76
2021/03/01 10:26:07;;;;;;;14.98;6.88;;;19.90;50.70;;;;;;5111520;28;20020;-74
2021/03/01 10:28:36;;;;;;;14.20;7.50;;;19.80;50.70;;;;;;5111544;28;20028;-74
2021/03/01 10:31:05;;;;;;;16.00;7.65;;;19.80;50.70;;;;;;5105713;28;20035;-76
2021/03/01 10:33:31;;;;;;;17.40;7.68;;;19.70;50.60;;;;;;5096350;28;20068;-75
2021/03/01 10:36:07;;;;;;;18.42;7.25;;;19.70;50.70;;;;;;5109257;28;20106;-74
2021/03/01 10:38:52;;;;;;;17.88;7.50;;;19.70;50.90;;;;;;5109799;28;20555;-75
2021/03/01 10:41:22;;;;;;;14.48;7.55;;;19.70;51.00;;;;;;5112067;28;20035;-74
2021/03/01 10:43:55;;;;;;;17.10;7.43;;;19.70;51.00;;;;;;5111898;28;20040;-75
2021/03/01 10:46:32;;;;;;;15.55;6.80;;;19.70;50.80;;;;;;5112099;28;20031;-74
2021/03/01 10:48:59;;;;;;;16.83;7.28;;;19.70;50.80;;;;;;5105286;28;20055;-78
2021/03/01 10:51:25;;;;;;;14.30;6.75;;;19.70;51.20;;;;;;5112383;28;20507;-75
2021/03/01 10:53:51;;;;;;;15.45;7.10;;;19.70;50.90;;;;;;5092162;28;20069;-75
2021/03/01 10:56:17;;;;;;;15.52;6.53;;;19.70;51.00;;;;;;5097754;28;20103;-74
2021/03/01 10:58:43;;;;;;;11.05;6.25;;;19.70;51.00;;;;;;5107741;28;20395;-75
2021/03/01 11:01:09;;;;;;;13.73;6.80;;;19.70;50.90;;;;;;5110388;28;20015;-75
2021/03/01 11:03:34;;;;;;;11.57;6.60;;;19.80;51.30;;;;;;5110788;28;20044;-75
2021/03/01 11:06:00;;;;;;;13.38;6.25;;;19.70;51.50;;;;;;5109927;28;20103;-75
2021/03/01 11:08:26;;;;;;;12.18;6.82;;;19.70;51.60;;;;;;5110728;28;20402;-75
2021/03/01 11:10:52;;;;;;;11.40;7.05;;;19.70;51.70;;;;;;5111025;28;20106;-76
2021/03/01 11:13:18;;;;;;;21.45;6.57;;;19.80;51.70;;;;;;5116401;28;20015;-75
2021/03/01 11:15:43;;;;;;;10.27;6.07;;;19.80;52.00;;;;;;5119128;28;20020;-75
2021/03/01 11:18:09;;;;;;;10.00;6.68;;;19.90;51.60;;;;;;5110608;28;20032;-75
2021/03/01 11:20:35;;;;;;;11.73;6.18;;;20.00;51.40;;;;;;5110176;28;20117;-75
2021/03/01 11:23:02;;;;;;;10.25;6.53;;;20.00;51.50;;;;;;5110389;28;20028;-75
2021/03/01 11:25:28;;;;;;;11.55;6.97;;;20.10;51.20;;;;;;5110765;28;20027;-74
2021/03/01 11:27:54;;;;;;;21.70;7.80;;;20.00;50.90;;;;;;5109811;28;20088;-75
2021/03/01 11:30:20;;;;;;;19.70;7.78;;;20.10;51.40;;;;;;5110911;28;20053;-75
2021/03/01 11:32:46;;;;;;;15.43;7.72;;;20.30;51.40;;;;;;5110707;28;20016;-76
2021/03/01 11:35:13;;;;;;;24.52;8.80;;;20.30;50.60;;;;;;5109429;28;20023;-76
2021/03/01 11:37:38;;;;;;;17.77;9.00;;;20.50;50.10;;;;;;5109547;28;20020;-76
2021/03/01 11:40:05;;;;;;;19.02;8.82;;;21.00;49.60;;;;;;5103670;28;20023;-76
2021/03/01 11:42:30;;;;;;;16.02;8.88;;;21.90;48.90;;;;;;5110170;28;20039;-75
2021/03/01 11:44:56;;;;;;;15.55;9.25;;;23.10;46.30;;;;;;5110534;28;20410;-76
2021/03/01 11:47:23;;;;;;;17.98;8.93;;;24.20;43.70;;;;;;5110466;28;20020;-76
2021/03/01 11:49:49;;;;;;;17.05;8.48;;;25.10;42.00;;;;;;5110114;28;20418;-77
2021/03/01 11:52:14;;;;;;;14.88;8.95;;;25.90;40.20;;;;;;5110430;28;20031;-76
2021/03/01 11:54:40;;;;;;;15.55;8.90;;;26.50;38.70;;;;;;5110632;28;20103;-76
2021/03/01 11:57:06;;;;;;;13.93;8.40;;;27.00;38.20;;;;;;5110160;28;20501;-76
2021/03/01 11:59:31;;;;;;;14.90;9.02;;;27.40;37.30;;;;;;5106447;28;20090;-77
2021/03/01 12:01:57;;;;;;;15.63;9.88;;;27.80;36.70;;;;;;5105174;28;20031;-75
2021/03/01 12:04:22;;;;;;;16.75;9.55;;;28.10;35.80;;;;;;5108116;28;20039;-76
2021/03/01 12:06:48;;;;;;;14.43;8.57;;;28.40;36.00;;;;;;5107012;28;20034;-76
2021/03/01 12:09:13;;;;;;;14.73;8.55;;;28.60;35.70;;;;;;5101087;28;20031;-77
2021/03/01 12:11:39;;;;;;;13.77;8.98;;;28.90;35.20;;;;;;5102277;28;20022;-77
2021/03/01 12:14:05;;;;;;;12.30;8.75;;;29.10;34.80;;;;;;5104803;28;20488;-78
2021/03/01 12:16:30;;;;;;;14.07;8.82;;;29.30;34.20;;;;;;5104224;28;20526;-77
2021/03/01 12:18:56;;;;;;;12.90;8.98;;;29.80;33.50;;;;;;5105161;28;20781;-76
2021/03/01 12:21:21;;;;;;;12.60;8.20;;;30.00;32.70;;;;;;5108408;28;20415;-77
2021/03/01 12:23:47;;;;;;;13.52;8.27;;;30.50;32.30;;;;;;5110253;28;20122;-76
2021/03/01 12:26:12;;;;;;;12.38;8.30;;;30.30;32.00;;;;;;5112622;28;20105;-77
2021/03/01 12:28:38;;;;;;;11.40;8.85;;;30.80;31.70;;;;;;5112208;28;20066;-76
2021/03/01 12:31:04;;;;;;;12.63;8.52;;;31.00;31.00;;;;;;5112536;28;20064;-76
2021/03/01 12:33:29;;;;;;;11.65;8.40;;;31.20;31.10;;;;;;5114099;28;20099;-76
2021/03/01 12:35:55;;;;;;;13.98;8.35;;;31.40;30.50;;;;;;5113082;28;20028;-76
2021/03/01 12:38:20;;;;;;;15.13;9.23;;;31.60;30.20;;;;;;5112306;28;20036;-76
2021/03/01 12:40:46;;;;;;;13.23;8.15;;;31.70;30.10;;;;;;5113497;28;20024;-76
2021/03/01 12:43:12;;;;;;;15.98;8.27;;;31.40;31.10;;;;;;5113819;28;20031;-76
2021/03/01 12:45:37;;;;;;;9.90;7.97;;;31.40;31.90;;;;;;5113276;28;20023;-78
2021/03/01 12:48:03;;;;;;;10.13;7.60;;;31.40;31.40;;;;;;5113601;28;20103;-77
2021/03/01 12:50:29;;;;;;;8.57;7.25;;;31.60;30.90;;;;;;5113475;28;20141;-77